sensor_id;sensor_type;location;lat;lon;timestamp;P1;durP1;ratioP1;P2;durP2;ratioP2
24891;SDS011;12954;50.688;10.908;2022-07-06T00:00:30;1.00;;;0.70;;
24891;SDS011;12954;50.688;10.908;2022-07-06T00:02:59;3.38;;;0.80;;
24891;SDS011;12954;50.688;10.908;2022-07-06T00:05:28;1.60;;;0.93;;
24891;SDS011;12954;50.688;10.908;2022-07-06T00:07:56;2.28;;;0.88;;
24891;SDS011;12954;50.688;10.908;2022-07-06T00:10:25;2.60;;;0.77;;
24891;SDS011;12954;50.688;10.908;2022-07-06T00:12:54;3.10;;;0.95;;
24891;SDS011;12954;50.688;10.908;2022-07-06T00:15:23;2.03;;;0.80;;
24891;SDS011;12954;50.688;10.908;2022-07-06T00:17:53;2.10;;;0.90;;
24891;SDS011;12954;50.688;10.908;2022-07-06T00:20:22;3.80;;;1.00;;
24891;SDS011;12954;50.688;10.908;2022-07-06T00:22:50;3.20;;;0.63;;
24891;SDS011;12954;50.688;10.908;2022-07-06T00:25:19;3.05;;;0.90;;
24891;SDS011;12954;50.688;10.908;2022-07-06T00:27:48;1.95;;;1.10;;
24891;SDS011;12954;50.688;10.908;2022-07-06T00:30:16;2.85;;;1.00;;
24891;SDS011;12954;50.688;10.908;2022-07-06T00:32:45;1.45;;;0.80;;
24891;SDS011;12954;50.688;10.908;2022-07-06T00:35:15;2.78;;;1.05;;
24891;SDS011;12954;50.688;10.908;2022-07-06T00:37:43;3.17;;;1.05;;
24891;SDS011;12954;50.688;10.908;2022-07-06T00:40:12;1.98;;;0.98;;
24891;SDS011;12954;50.688;10.908;2022-07-06T00:42:40;1.63;;;0.90;;
24891;SDS011;12954;50.688;10.908;2022-07-06T00:45:09;2.05;;;0.80;;
24891;SDS011;12954;50.688;10.908;2022-07-06T00:47:39;1.80;;;1.00;;
24891;SDS011;12954;50.688;10.908;2022-07-06T00:50:08;1.33;;;0.60;;
24891;SDS011;12954;50.688;10.908;2022-07-06T00:52:49;2.30;;;0.80;;
24891;SDS011;12954;50.688;10.908;2022-07-06T00:55:20;1.52;;;1.00;;
24891;SDS011;12954;50.688;10.908;2022-07-06T00:57:51;1.45;;;0.95;;
24891;SDS011;12954;50.688;10.908;2022-07-06T01:00:20;2.65;;;1.10;;
24891;SDS011;12954;50.688;10.908;2022-07-06T01:02:50;3.08;;;0.85;;
24891;SDS011;12954;50.688;10.908;2022-07-06T01:05:20;1.92;;;0.90;;
24891;SDS011;12954;50.688;10.908;2022-07-06T01:07:52;3.15;;;1.08;;
24891;SDS011;12954;50.688;10.908;2022-07-06T01:10:21;3.35;;;1.15;;
24891;SDS011;12954;50.688;10.908;2022-07-06T01:12:51;3.72;;;1.10;;
24891;SDS011;12954;50.688;10.908;2022-07-06T01:15:20;2.70;;;1.10;;
24891;SDS011;12954;50.688;10.908;2022-07-06T01:17:50;1.42;;;1.00;;
24891;SDS011;12954;50.688;10.908;2022-07-06T01:20:21;1.17;;;0.85;;
24891;SDS011;12954;50.688;10.908;2022-07-06T01:22:51;2.67;;;0.90;;
24891;SDS011;12954;50.688;10.908;2022-07-06T01:25:21;2.80;;;1.10;;
24891;SDS011;12954;50.688;10.908;2022-07-06T01:27:50;2.55;;;1.02;;
24891;SDS011;12954;50.688;10.908;2022-07-06T01:30:18;1.88;;;1.10;;
24891;SDS011;12954;50.688;10.908;2022-07-06T01:32:48;1.40;;;1.00;;
24891;SDS011;12954;50.688;10.908;2022-07-06T01:35:18;2.45;;;1.52;;
24891;SDS011;12954;50.688;10.908;2022-07-06T01:37:48;3.65;;;0.95;;
24891;SDS011;12954;50.688;10.908;2022-07-06T01:40:17;1.38;;;1.02;;
24891;SDS011;12954;50.688;10.908;2022-07-06T01:42:46;1.48;;;1.20;;
24891;SDS011;12954;50.688;10.908;2022-07-06T01:45:14;1.95;;;0.90;;
24891;SDS011;12954;50.688;10.908;2022-07-06T01:47:43;2.65;;;1.10;;
24891;SDS011;12954;50.688;10.908;2022-07-06T01:50:11;2.85;;;1.30;;
24891;SDS011;12954;50.688;10.908;2022-07-06T01:52:40;5.57;;;1.13;;
24891;SDS011;12954;50.688;10.908;2022-07-06T01:55:10;1.35;;;1.13;;
24891;SDS011;12954;50.688;10.908;2022-07-06T01:57:39;1.63;;;1.00;;
24891;SDS011;12954;50.688;10.908;2022-07-06T02:00:08;1.80;;;1.10;;
24891;SDS011;12954;50.688;10.908;2022-07-06T02:02:37;2.00;;;0.90;;
24891;SDS011;12954;50.688;10.908;2022-07-06T02:05:06;1.10;;;0.88;;
24891;SDS011;12954;50.688;10.908;2022-07-06T02:07:35;2.15;;;1.10;;
24891;SDS011;12954;50.688;10.908;2022-07-06T02:10:04;3.58;;;1.48;;
24891;SDS011;12954;50.688;10.908;2022-07-06T02:12:34;3.70;;;1.30;;
24891;SDS011;12954;50.688;10.908;2022-07-06T02:15:03;5.28;;;1.10;;
24891;SDS011;12954;50.688;10.908;2022-07-06T02:17:32;2.65;;;1.15;;
24891;SDS011;12954;50.688;10.908;2022-07-06T02:20:00;2.08;;;0.90;;
24891;SDS011;12954;50.688;10.908;2022-07-06T02:22:29;4.05;;;0.90;;
24891;SDS011;12954;50.688;10.908;2022-07-06T02:24:57;1.75;;;1.10;;
24891;SDS011;12954;50.688;10.908;2022-07-06T02:27:26;2.15;;;0.88;;
24891;SDS011;12954;50.688;10.908;2022-07-06T02:29:56;4.72;;;1.17;;
24891;SDS011;12954;50.688;10.908;2022-07-06T02:32:25;1.77;;;1.05;;
24891;SDS011;12954;50.688;10.908;2022-07-06T02:34:53;1.88;;;0.93;;
24891;SDS011;12954;50.688;10.908;2022-07-06T02:37:22;3.97;;;1.10;;
24891;SDS011;12954;50.688;10.908;2022-07-06T02:39:51;2.33;;;0.93;;
24891;SDS011;12954;50.688;10.908;2022-07-06T02:42:19;1.50;;;0.98;;
24891;SDS011;12954;50.688;10.908;2022-07-06T02:44:48;3.20;;;0.80;;
24891;SDS011;12954;50.688;10.908;2022-07-06T02:47:18;1.98;;;0.90;;
24891;SDS011;12954;50.688;10.908;2022-07-06T02:49:47;2.13;;;0.88;;
24891;SDS011;12954;50.688;10.908;2022-07-06T02:52:15;2.67;;;1.13;;
24891;SDS011;12954;50.688;10.908;2022-07-06T02:54:44;2.20;;;1.00;;
24891;SDS011;12954;50.688;10.908;2022-07-06T02:57:15;3.35;;;0.95;;
24891;SDS011;12954;50.688;10.908;2022-07-06T02:59:44;2.83;;;1.23;;
24891;SDS011;12954;50.688;10.908;2022-07-06T03:02:12;2.28;;;0.98;;
24891;SDS011;12954;50.688;10.908;2022-07-06T03:04:43;1.10;;;0.80;;
24891;SDS011;12954;50.688;10.908;2022-07-06T03:07:11;2.85;;;1.08;;
24891;SDS011;12954;50.688;10.908;2022-07-06T03:09:40;1.92;;;0.90;;
24891;SDS011;12954;50.688;10.908;2022-07-06T03:12:09;2.58;;;1.10;;
24891;SDS011;12954;50.688;10.908;2022-07-06T03:14:38;3.13;;;1.58;;
24891;SDS011;12954;50.688;10.908;2022-07-06T03:17:07;1.77;;;1.05;;
24891;SDS011;12954;50.688;10.908;2022-07-06T03:19:35;3.33;;;1.48;;
24891;SDS011;12954;50.688;10.908;2022-07-06T03:22:05;3.95;;;1.05;;
24891;SDS011;12954;50.688;10.908;2022-07-06T03:24:34;4.72;;;1.40;;
24891;SDS011;12954;50.688;10.908;2022-07-06T03:27:03;1.45;;;0.98;;
24891;SDS011;12954;50.688;10.908;2022-07-06T03:29:32;3.05;;;1.27;;
24891;SDS011;12954;50.688;10.908;2022-07-06T03:32:00;1.13;;;0.98;;
24891;SDS011;12954;50.688;10.908;2022-07-06T03:34:29;1.83;;;1.17;;
24891;SDS011;12954;50.688;10.908;2022-07-06T03:36:58;2.80;;;1.27;;
24891;SDS011;12954;50.688;10.908;2022-07-06T03:39:28;3.10;;;1.20;;
24891;SDS011;12954;50.688;10.908;2022-07-06T03:41:57;3.38;;;1.30;;
24891;SDS011;12954;50.688;10.908;2022-07-06T03:44:26;2.88;;;1.10;;
24891;SDS011;12954;50.688;10.908;2022-07-06T03:46:54;1.98;;;1.02;;
24891;SDS011;12954;50.688;10.908;2022-07-06T03:49:23;3.53;;;1.35;;
24891;SDS011;12954;50.688;10.908;2022-07-06T03:51:54;2.60;;;0.90;;
24891;SDS011;12954;50.688;10.908;2022-07-06T03:54:22;3.17;;;0.80;;
24891;SDS011;12954;50.688;10.908;2022-07-06T03:56:52;2.47;;;0.90;;
24891;SDS011;12954;50.688;10.908;2022-07-06T03:59:21;2.20;;;0.88;;
24891;SDS011;12954;50.688;10.908;2022-07-06T04:01:50;1.05;;;0.80;;
24891;SDS011;12954;50.688;10.908;2022-07-06T04:04:19;2.40;;;1.10;;
24891;SDS011;12954;50.688;10.908;2022-07-06T04:06:48;2.65;;;1.00;;
24891;SDS011;12954;50.688;10.908;2022-07-06T04:09:17;2.05;;;1.10;;
24891;SDS011;12954;50.688;10.908;2022-07-06T04:11:45;3.90;;;1.10;;
24891;SDS011;12954;50.688;10.908;2022-07-06T04:14:15;2.65;;;0.95;;
24891;SDS011;12954;50.688;10.908;2022-07-06T04:16:44;2.08;;;1.25;;
24891;SDS011;12954;50.688;10.908;2022-07-06T04:19:13;3.72;;;0.80;;
24891;SDS011;12954;50.688;10.908;2022-07-06T04:21:41;2.92;;;0.93;;
24891;SDS011;12954;50.688;10.908;2022-07-06T04:24:10;2.17;;;0.90;;
24891;SDS011;12954;50.688;10.908;2022-07-06T04:26:38;1.25;;;1.00;;
24891;SDS011;12954;50.688;10.908;2022-07-06T04:29:07;1.98;;;1.00;;
24891;SDS011;12954;50.688;10.908;2022-07-06T04:31:37;4.25;;;1.05;;
24891;SDS011;12954;50.688;10.908;2022-07-06T04:34:05;1.98;;;1.02;;
24891;SDS011;12954;50.688;10.908;2022-07-06T04:36:34;2.20;;;1.10;;
24891;SDS011;12954;50.688;10.908;2022-07-06T04:39:03;3.20;;;1.10;;
24891;SDS011;12954;50.688;10.908;2022-07-06T04:41:31;2.33;;;1.20;;
24891;SDS011;12954;50.688;10.908;2022-07-06T04:44:00;5.22;;;1.20;;
24891;SDS011;12954;50.688;10.908;2022-07-06T04:46:28;6.28;;;1.10;;
24891;SDS011;12954;50.688;10.908;2022-07-06T04:48:59;5.75;;;1.20;;
24891;SDS011;12954;50.688;10.908;2022-07-06T04:51:28;2.95;;;1.30;;
24891;SDS011;12954;50.688;10.908;2022-07-06T04:53:56;2.67;;;1.45;;
24891;SDS011;12954;50.688;10.908;2022-07-06T04:56:25;5.30;;;1.65;;
24891;SDS011;12954;50.688;10.908;2022-07-06T04:58:54;4.28;;;1.20;;
24891;SDS011;12954;50.688;10.908;2022-07-06T05:01:22;2.92;;;1.38;;
24891;SDS011;12954;50.688;10.908;2022-07-06T05:03:51;1.98;;;1.02;;
24891;SDS011;12954;50.688;10.908;2022-07-06T05:06:21;2.45;;;1.10;;
24891;SDS011;12954;50.688;10.908;2022-07-06T05:08:50;2.15;;;1.17;;
24891;SDS011;12954;50.688;10.908;2022-07-06T05:11:18;3.35;;;1.10;;
24891;SDS011;12954;50.688;10.908;2022-07-06T05:13:47;1.80;;;1.42;;
24891;SDS011;12954;50.688;10.908;2022-07-06T05:16:16;4.47;;;1.15;;
24891;SDS011;12954;50.688;10.908;2022-07-06T05:18:45;3.95;;;1.30;;
24891;SDS011;12954;50.688;10.908;2022-07-06T05:21:13;2.63;;;1.30;;
24891;SDS011;12954;50.688;10.908;2022-07-06T05:23:44;5.43;;;1.65;;
24891;SDS011;12954;50.688;10.908;2022-07-06T05:26:12;5.00;;;1.25;;
24891;SDS011;12954;50.688;10.908;2022-07-06T05:28:43;2.67;;;1.00;;
24891;SDS011;12954;50.688;10.908;2022-07-06T05:31:11;3.17;;;1.33;;
24891;SDS011;12954;50.688;10.908;2022-07-06T05:33:40;3.92;;;0.93;;
24891;SDS011;12954;50.688;10.908;2022-07-06T05:36:08;4.28;;;1.00;;
24891;SDS011;12954;50.688;10.908;2022-07-06T05:38:37;5.65;;;1.42;;
24891;SDS011;12954;50.688;10.908;2022-07-06T05:41:08;2.42;;;1.23;;
24891;SDS011;12954;50.688;10.908;2022-07-06T05:43:36;3.50;;;1.10;;
24891;SDS011;12954;50.688;10.908;2022-07-06T05:46:05;4.13;;;1.17;;
24891;SDS011;12954;50.688;10.908;2022-07-06T05:48:34;3.63;;;1.48;;
24891;SDS011;12954;50.688;10.908;2022-07-06T05:51:34;2.40;;;1.08;;
24891;SDS011;12954;50.688;10.908;2022-07-06T05:54:03;1.10;;;1.00;;
24891;SDS011;12954;50.688;10.908;2022-07-06T05:56:33;3.03;;;1.23;;
24891;SDS011;12954;50.688;10.908;2022-07-06T05:59:02;3.85;;;1.10;;
24891;SDS011;12954;50.688;10.908;2022-07-06T06:01:31;5.88;;;1.23;;
24891;SDS011;12954;50.688;10.908;2022-07-06T06:04:00;6.65;;;1.50;;
24891;SDS011;12954;50.688;10.908;2022-07-06T06:06:29;3.00;;;1.13;;
24891;SDS011;12954;50.688;10.908;2022-07-06T06:08:58;4.45;;;1.15;;
24891;SDS011;12954;50.688;10.908;2022-07-06T06:11:27;3.80;;;1.13;;
24891;SDS011;12954;50.688;10.908;2022-07-06T06:14:07;4.60;;;1.00;;
24891;SDS011;12954;50.688;10.908;2022-07-06T06:16:36;1.67;;;1.02;;
24891;SDS011;12954;50.688;10.908;2022-07-06T06:19:05;3.83;;;1.30;;
24891;SDS011;12954;50.688;10.908;2022-07-06T06:21:34;5.45;;;1.35;;
24891;SDS011;12954;50.688;10.908;2022-07-06T06:24:03;2.85;;;1.27;;
24891;SDS011;12954;50.688;10.908;2022-07-06T06:26:31;2.65;;;1.27;;
24891;SDS011;12954;50.688;10.908;2022-07-06T06:29:01;3.05;;;1.33;;
24891;SDS011;12954;50.688;10.908;2022-07-06T06:31:30;4.72;;;1.27;;
24891;SDS011;12954;50.688;10.908;2022-07-06T06:34:06;3.28;;;1.13;;
24891;SDS011;12954;50.688;10.908;2022-07-06T06:36:35;2.55;;;1.10;;
24891;SDS011;12954;50.688;10.908;2022-07-06T06:39:04;2.53;;;1.20;;
24891;SDS011;12954;50.688;10.908;2022-07-06T06:41:32;3.00;;;1.30;;
24891;SDS011;12954;50.688;10.908;2022-07-06T06:44:03;1.67;;;1.10;;
24891;SDS011;12954;50.688;10.908;2022-07-06T06:46:31;3.00;;;1.15;;
24891;SDS011;12954;50.688;10.908;2022-07-06T06:49:00;5.97;;;1.42;;
24891;SDS011;12954;50.688;10.908;2022-07-06T06:51:28;5.15;;;1.48;;
24891;SDS011;12954;50.688;10.908;2022-07-06T06:53:57;3.50;;;1.52;;
24891;SDS011;12954;50.688;10.908;2022-07-06T06:56:26;6.72;;;1.55;;
24891;SDS011;12954;50.688;10.908;2022-07-06T06:58:54;6.72;;;1.30;;
24891;SDS011;12954;50.688;10.908;2022-07-06T07:01:44;4.72;;;1.27;;
24891;SDS011;12954;50.688;10.908;2022-07-06T07:04:21;2.35;;;1.00;;
24891;SDS011;12954;50.688;10.908;2022-07-06T07:06:50;2.45;;;1.10;;
24891;SDS011;12954;50.688;10.908;2022-07-06T07:09:18;3.13;;;1.20;;
24891;SDS011;12954;50.688;10.908;2022-07-06T07:11:47;2.88;;;1.13;;
24891;SDS011;12954;50.688;10.908;2022-07-06T07:14:15;3.88;;;1.25;;
24891;SDS011;12954;50.688;10.908;2022-07-06T07:16:46;3.78;;;1.30;;
24891;SDS011;12954;50.688;10.908;2022-07-06T07:19:14;4.18;;;1.55;;
24891;SDS011;12954;50.688;10.908;2022-07-06T07:21:43;2.75;;;1.27;;
24891;SDS011;12954;50.688;10.908;2022-07-06T07:24:12;3.67;;;1.25;;
24891;SDS011;12954;50.688;10.908;2022-07-06T07:26:40;5.65;;;1.45;;
24891;SDS011;12954;50.688;10.908;2022-07-06T07:29:08;1.83;;;1.42;;
24891;SDS011;12954;50.688;10.908;2022-07-06T07:31:37;4.07;;;1.27;;
24891;SDS011;12954;50.688;10.908;2022-07-06T07:34:08;3.10;;;1.15;;
24891;SDS011;12954;50.688;10.908;2022-07-06T07:36:36;4.00;;;1.55;;
24891;SDS011;12954;50.688;10.908;2022-07-06T07:39:05;4.50;;;1.52;;
24891;SDS011;12954;50.688;10.908;2022-07-06T07:41:34;7.35;;;2.33;;
24891;SDS011;12954;50.688;10.908;2022-07-06T07:44:02;3.65;;;1.38;;
24891;SDS011;12954;50.688;10.908;2022-07-06T07:46:31;3.75;;;1.40;;
24891;SDS011;12954;50.688;10.908;2022-07-06T07:48:59;5.30;;;1.42;;
24891;SDS011;12954;50.688;10.908;2022-07-06T07:51:29;3.92;;;1.35;;
24891;SDS011;12954;50.688;10.908;2022-07-06T07:53:58;5.10;;;1.58;;
24891;SDS011;12954;50.688;10.908;2022-07-06T07:56:26;3.17;;;1.30;;
24891;SDS011;12954;50.688;10.908;2022-07-06T07:58:55;5.70;;;2.22;;
24891;SDS011;12954;50.688;10.908;2022-07-06T08:01:24;1.92;;;1.13;;
24891;SDS011;12954;50.688;10.908;2022-07-06T08:03:52;4.30;;;1.60;;
24891;SDS011;12954;50.688;10.908;2022-07-06T08:06:21;4.07;;;1.70;;
24891;SDS011;12954;50.688;10.908;2022-07-06T08:08:51;3.45;;;1.85;;
24891;SDS011;12954;50.688;10.908;2022-07-06T08:11:19;4.47;;;1.60;;
24891;SDS011;12954;50.688;10.908;2022-07-06T08:13:48;2.58;;;1.30;;
24891;SDS011;12954;50.688;10.908;2022-07-06T08:16:16;5.43;;;1.20;;
24891;SDS011;12954;50.688;10.908;2022-07-06T08:18:45;4.85;;;1.40;;
24891;SDS011;12954;50.688;10.908;2022-07-06T08:21:14;4.93;;;1.55;;
24891;SDS011;12954;50.688;10.908;2022-07-06T08:23:54;2.83;;;1.38;;
24891;SDS011;12954;50.688;10.908;2022-07-06T08:26:23;3.38;;;1.60;;
24891;SDS011;12954;50.688;10.908;2022-07-06T08:28:51;5.95;;;1.77;;
24891;SDS011;12954;50.688;10.908;2022-07-06T08:31:20;3.10;;;1.67;;
24891;SDS011;12954;50.688;10.908;2022-07-06T08:34:09;5.10;;;1.60;;
24891;SDS011;12954;50.688;10.908;2022-07-06T08:36:38;2.67;;;1.23;;
24891;SDS011;12954;50.688;10.908;2022-07-06T08:39:08;3.85;;;1.10;;
24891;SDS011;12954;50.688;10.908;2022-07-06T08:41:36;2.70;;;1.20;;
24891;SDS011;12954;50.688;10.908;2022-07-06T08:44:08;4.97;;;1.33;;
24891;SDS011;12954;50.688;10.908;2022-07-06T08:46:37;3.85;;;1.10;;
24891;SDS011;12954;50.688;10.908;2022-07-06T08:49:07;2.33;;;1.08;;
24891;SDS011;12954;50.688;10.908;2022-07-06T08:51:40;5.47;;;1.33;;
24891;SDS011;12954;50.688;10.908;2022-07-06T08:54:10;3.00;;;1.27;;
24891;SDS011;12954;50.688;10.908;2022-07-06T08:56:39;3.58;;;1.42;;
24891;SDS011;12954;50.688;10.908;2022-07-06T08:59:14;4.85;;;1.40;;
24891;SDS011;12954;50.688;10.908;2022-07-06T09:01:43;2.72;;;1.10;;
24891;SDS011;12954;50.688;10.908;2022-07-06T09:04:13;1.75;;;1.10;;
24891;SDS011;12954;50.688;10.908;2022-07-06T09:06:46;2.53;;;1.00;;
24891;SDS011;12954;50.688;10.908;2022-07-06T09:09:18;3.35;;;1.30;;
24891;SDS011;12954;50.688;10.908;2022-07-06T09:11:48;2.63;;;1.10;;
24891;SDS011;12954;50.688;10.908;2022-07-06T09:14:18;2.45;;;1.23;;
24891;SDS011;12954;50.688;10.908;2022-07-06T09:16:49;3.13;;;1.10;;
24891;SDS011;12954;50.688;10.908;2022-07-06T09:19:20;2.88;;;1.10;;
24891;SDS011;12954;50.688;10.908;2022-07-06T09:21:48;2.88;;;1.30;;
24891;SDS011;12954;50.688;10.908;2022-07-06T09:24:18;2.30;;;0.95;;
24891;SDS011;12954;50.688;10.908;2022-07-06T09:26:47;4.72;;;1.05;;
24891;SDS011;12954;50.688;10.908;2022-07-06T09:29:16;2.20;;;1.10;;
24891;SDS011;12954;50.688;10.908;2022-07-06T09:31:55;2.08;;;1.20;;
24891;SDS011;12954;50.688;10.908;2022-07-06T09:34:30;2.00;;;0.85;;
24891;SDS011;12954;50.688;10.908;2022-07-06T09:39:39;3.13;;;1.25;;
24891;SDS011;12954;50.688;10.908;2022-07-06T09:42:08;4.80;;;1.38;;
24891;SDS011;12954;50.688;10.908;2022-07-06T09:44:37;3.15;;;1.02;;
24891;SDS011;12954;50.688;10.908;2022-07-06T09:47:06;2.88;;;1.23;;
24891;SDS011;12954;50.688;10.908;2022-07-06T09:49:36;5.05;;;1.00;;
24891;SDS011;12954;50.688;10.908;2022-07-06T09:52:06;2.90;;;1.23;;
24891;SDS011;12954;50.688;10.908;2022-07-06T09:54:36;3.47;;;1.30;;
24891;SDS011;12954;50.688;10.908;2022-07-06T09:57:07;1.55;;;0.90;;
24891;SDS011;12954;50.688;10.908;2022-07-06T09:59:36;1.75;;;1.23;;
24891;SDS011;12954;50.688;10.908;2022-07-06T10:02:05;2.78;;;1.15;;
24891;SDS011;12954;50.688;10.908;2022-07-06T10:04:35;2.47;;;1.15;;
24891;SDS011;12954;50.688;10.908;2022-07-06T10:07:04;2.83;;;0.98;;
24891;SDS011;12954;50.688;10.908;2022-07-06T10:09:34;3.15;;;1.50;;
24891;SDS011;12954;50.688;10.908;2022-07-06T10:12:05;2.05;;;0.82;;
24891;SDS011;12954;50.688;10.908;2022-07-06T10:14:37;6.30;;;1.00;;
24891;SDS011;12954;50.688;10.908;2022-07-06T10:17:16;1.65;;;0.90;;
24891;SDS011;12954;50.688;10.908;2022-07-06T10:19:45;2.00;;;0.88;;
24891;SDS011;12954;50.688;10.908;2022-07-06T10:22:15;2.72;;;1.10;;
24891;SDS011;12954;50.688;10.908;2022-07-06T10:24:45;2.17;;;0.80;;
24891;SDS011;12954;50.688;10.908;2022-07-06T10:27:17;3.85;;;1.23;;
24891;SDS011;12954;50.688;10.908;2022-07-06T10:29:46;2.67;;;1.30;;
24891;SDS011;12954;50.688;10.908;2022-07-06T10:32:16;3.42;;;1.38;;
24891;SDS011;12954;50.688;10.908;2022-07-06T10:34:47;2.78;;;0.85;;
24891;SDS011;12954;50.688;10.908;2022-07-06T10:37:21;3.67;;;1.00;;
24891;SDS011;12954;50.688;10.908;2022-07-06T10:39:51;2.05;;;0.60;;
24891;SDS011;12954;50.688;10.908;2022-07-06T10:42:42;3.88;;;0.68;;
24891;SDS011;12954;50.688;10.908;2022-07-06T10:45:12;2.33;;;0.93;;
24891;SDS011;12954;50.688;10.908;2022-07-06T10:47:42;1.75;;;0.82;;
24891;SDS011;12954;50.688;10.908;2022-07-06T10:50:11;1.17;;;0.60;;
24891;SDS011;12954;50.688;10.908;2022-07-06T10:55:30;1.52;;;0.68;;
24891;SDS011;12954;50.688;10.908;2022-07-06T11:00:47;1.80;;;0.50;;
24891;SDS011;12954;50.688;10.908;2022-07-06T11:03:29;2.30;;;1.50;;
24891;SDS011;12954;50.688;10.908;2022-07-06T11:06:05;2.58;;;1.50;;
24891;SDS011;12954;50.688;10.908;2022-07-06T11:08:43;1.63;;;0.70;;
24891;SDS011;12954;50.688;10.908;2022-07-06T11:11:23;1.98;;;0.88;;
24891;SDS011;12954;50.688;10.908;2022-07-06T11:13:58;3.20;;;0.80;;
24891;SDS011;12954;50.688;10.908;2022-07-06T11:16:29;1.75;;;0.75;;
24891;SDS011;12954;50.688;10.908;2022-07-06T11:19:07;6.05;;;0.73;;
24891;SDS011;12954;50.688;10.908;2022-07-06T11:21:38;3.28;;;0.80;;
24891;SDS011;12954;50.688;10.908;2022-07-06T11:24:13;1.45;;;0.85;;
24891;SDS011;12954;50.688;10.908;2022-07-06T11:26:43;1.63;;;0.85;;
24891;SDS011;12954;50.688;10.908;2022-07-06T11:29:15;2.15;;;0.77;;
24891;SDS011;12954;50.688;10.908;2022-07-06T11:31:45;2.20;;;0.80;;
24891;SDS011;12954;50.688;10.908;2022-07-06T11:34:17;2.28;;;0.80;;
24891;SDS011;12954;50.688;10.908;2022-07-06T11:36:48;1.83;;;0.50;;
24891;SDS011;12954;50.688;10.908;2022-07-06T11:39:17;2.35;;;0.70;;
24891;SDS011;12954;50.688;10.908;2022-07-06T11:41:46;3.92;;;0.60;;
24891;SDS011;12954;50.688;10.908;2022-07-06T11:44:19;0.68;;;0.60;;
24891;SDS011;12954;50.688;10.908;2022-07-06T11:46:48;1.35;;;0.60;;
24891;SDS011;12954;50.688;10.908;2022-07-06T11:49:17;3.17;;;1.60;;
24891;SDS011;12954;50.688;10.908;2022-07-06T11:51:45;2.50;;;1.23;;
24891;SDS011;12954;50.688;10.908;2022-07-06T11:54:15;2.55;;;0.93;;
24891;SDS011;12954;50.688;10.908;2022-07-06T11:56:45;3.28;;;0.82;;
24891;SDS011;12954;50.688;10.908;2022-07-06T11:59:15;1.25;;;0.57;;
24891;SDS011;12954;50.688;10.908;2022-07-06T12:01:49;0.80;;;0.52;;
24891;SDS011;12954;50.688;10.908;2022-07-06T12:04:25;1.73;;;0.70;;
24891;SDS011;12954;50.688;10.908;2022-07-06T12:06:54;5.78;;;1.30;;
24891;SDS011;12954;50.688;10.908;2022-07-06T12:09:23;1.02;;;0.70;;
24891;SDS011;12954;50.688;10.908;2022-07-06T12:11:51;3.45;;;0.77;;
24891;SDS011;12954;50.688;10.908;2022-07-06T12:14:20;1.67;;;0.68;;
24891;SDS011;12954;50.688;10.908;2022-07-06T12:16:51;2.30;;;0.70;;
24891;SDS011;12954;50.688;10.908;2022-07-06T12:19:21;2.03;;;0.70;;
24891;SDS011;12954;50.688;10.908;2022-07-06T12:21:51;2.47;;;0.73;;
24891;SDS011;12954;50.688;10.908;2022-07-06T12:24:20;4.28;;;0.90;;
24891;SDS011;12954;50.688;10.908;2022-07-06T12:26:52;3.58;;;0.98;;
24891;SDS011;12954;50.688;10.908;2022-07-06T12:29:21;2.33;;;0.80;;
24891;SDS011;12954;50.688;10.908;2022-07-06T12:31:52;3.08;;;0.82;;
24891;SDS011;12954;50.688;10.908;2022-07-06T12:34:22;2.75;;;0.80;;
24891;SDS011;12954;50.688;10.908;2022-07-06T12:36:53;2.03;;;0.80;;
24891;SDS011;12954;50.688;10.908;2022-07-06T12:39:30;3.28;;;0.70;;
24891;SDS011;12954;50.688;10.908;2022-07-06T12:42:01;3.83;;;0.98;;
24891;SDS011;12954;50.688;10.908;2022-07-06T12:44:31;2.83;;;1.00;;
24891;SDS011;12954;50.688;10.908;2022-07-06T12:47:03;2.63;;;0.90;;
24891;SDS011;12954;50.688;10.908;2022-07-06T12:49:33;3.20;;;1.00;;
24891;SDS011;12954;50.688;10.908;2022-07-06T12:52:08;3.65;;;0.70;;
24891;SDS011;12954;50.688;10.908;2022-07-06T12:54:40;4.88;;;0.82;;
24891;SDS011;12954;50.688;10.908;2022-07-06T12:57:11;2.45;;;1.02;;
24891;SDS011;12954;50.688;10.908;2022-07-06T12:59:42;2.80;;;0.80;;
24891;SDS011;12954;50.688;10.908;2022-07-06T13:02:20;1.55;;;0.60;;
24891;SDS011;12954;50.688;10.908;2022-07-06T13:05:11;2.72;;;0.73;;
24891;SDS011;12954;50.688;10.908;2022-07-06T13:07:43;1.98;;;0.70;;
24891;SDS011;12954;50.688;10.908;2022-07-06T13:10:14;3.17;;;0.80;;
24891;SDS011;12954;50.688;10.908;2022-07-06T13:12:43;4.03;;;0.70;;
24891;SDS011;12954;50.688;10.908;2022-07-06T13:15:12;2.00;;;0.70;;
24891;SDS011;12954;50.688;10.908;2022-07-06T13:17:42;2.95;;;0.68;;
24891;SDS011;12954;50.688;10.908;2022-07-06T13:20:12;1.60;;;0.77;;
24891;SDS011;12954;50.688;10.908;2022-07-06T13:22:43;0.98;;;0.60;;
24891;SDS011;12954;50.688;10.908;2022-07-06T13:25:12;2.92;;;0.77;;
24891;SDS011;12954;50.688;10.908;2022-07-06T13:27:41;2.40;;;0.70;;
24891;SDS011;12954;50.688;10.908;2022-07-06T13:30:10;2.05;;;0.82;;
24891;SDS011;12954;50.688;10.908;2022-07-06T13:32:39;5.32;;;0.70;;
24891;SDS011;12954;50.688;10.908;2022-07-06T13:35:09;4.43;;;0.80;;
24891;SDS011;12954;50.688;10.908;2022-07-06T13:37:38;4.20;;;1.00;;
24891;SDS011;12954;50.688;10.908;2022-07-06T13:40:07;2.35;;;0.90;;
24891;SDS011;12954;50.688;10.908;2022-07-06T13:42:37;1.85;;;0.80;;
24891;SDS011;12954;50.688;10.908;2022-07-06T13:45:06;0.90;;;0.60;;
24891;SDS011;12954;50.688;10.908;2022-07-06T13:47:35;4.18;;;0.82;;
24891;SDS011;12954;50.688;10.908;2022-07-06T13:50:04;1.45;;;0.70;;
24891;SDS011;12954;50.688;10.908;2022-07-06T13:52:35;3.65;;;0.95;;
24891;SDS011;12954;50.688;10.908;2022-07-06T13:55:04;2.17;;;0.68;;
24891;SDS011;12954;50.688;10.908;2022-07-06T13:57:34;2.85;;;0.80;;
24891;SDS011;12954;50.688;10.908;2022-07-06T14:00:03;4.70;;;0.75;;
24891;SDS011;12954;50.688;10.908;2022-07-06T14:02:32;3.20;;;0.90;;
24891;SDS011;12954;50.688;10.908;2022-07-06T14:05:01;3.03;;;0.60;;
24891;SDS011;12954;50.688;10.908;2022-07-06T14:07:29;3.00;;;1.40;;
24891;SDS011;12954;50.688;10.908;2022-07-06T14:09:59;3.63;;;0.60;;
24891;SDS011;12954;50.688;10.908;2022-07-06T14:12:28;0.57;;;0.50;;
24891;SDS011;12954;50.688;10.908;2022-07-06T14:14:57;1.85;;;0.60;;
24891;SDS011;12954;50.688;10.908;2022-07-06T14:17:26;0.98;;;0.60;;
24891;SDS011;12954;50.688;10.908;2022-07-06T14:19:54;5.80;;;0.80;;
24891;SDS011;12954;50.688;10.908;2022-07-06T14:22:23;2.25;;;0.60;;
24891;SDS011;12954;50.688;10.908;2022-07-06T14:24:52;1.05;;;0.70;;
24891;SDS011;12954;50.688;10.908;2022-07-06T14:27:22;1.60;;;0.50;;
24891;SDS011;12954;50.688;10.908;2022-07-06T14:29:51;1.40;;;0.60;;
24891;SDS011;12954;50.688;10.908;2022-07-06T14:32:19;0.88;;;0.50;;
24891;SDS011;12954;50.688;10.908;2022-07-06T14:34:48;2.90;;;0.70;;
24891;SDS011;12954;50.688;10.908;2022-07-06T14:37:17;1.30;;;0.57;;
24891;SDS011;12954;50.688;10.908;2022-07-06T14:39:46;1.75;;;0.77;;
24891;SDS011;12954;50.688;10.908;2022-07-06T14:42:15;1.70;;;0.60;;
24891;SDS011;12954;50.688;10.908;2022-07-06T14:44:45;2.33;;;0.90;;
24891;SDS011;12954;50.688;10.908;2022-07-06T14:47:14;1.80;;;0.55;;
24891;SDS011;12954;50.688;10.908;2022-07-06T14:49:42;2.50;;;0.60;;
24891;SDS011;12954;50.688;10.908;2022-07-06T14:52:11;2.15;;;0.80;;
24891;SDS011;12954;50.688;10.908;2022-07-06T14:54:40;2.60;;;1.08;;
24891;SDS011;12954;50.688;10.908;2022-07-06T14:57:08;1.02;;;0.60;;